createdAt,value
2022-08-03T00:00:32.524Z,46.51
2022-08-03T00:02:59.872Z,46.54
2022-08-03T00:05:27.224Z,46.51
2022-08-03T00:07:55.152Z,46.72
2022-08-03T00:10:23.479Z,46.23
2022-08-03T00:12:51.081Z,46.38
2022-08-03T00:15:18.628Z,45.57
2022-08-03T00:17:52.618Z,46.78
2022-08-03T00:20:22.569Z,47.05
2022-08-03T00:22:51.478Z,46.32
2022-08-03T00:25:19.416Z,46.57
2022-08-03T00:27:48.264Z,47.25
2022-08-03T00:30:17.003Z,47.38
2022-08-03T00:32:45.583Z,47.28
2022-08-03T00:35:25.134Z,47.24
2022-08-03T00:38:00.757Z,47.12
2022-08-03T00:40:28.575Z,47.80
2022-08-03T00:43:04.584Z,47.60
2022-08-03T00:45:42.529Z,48.22
2022-08-03T00:48:19.786Z,48.06
2022-08-03T00:51:01.600Z,48.34
2022-08-03T00:53:29.443Z,47.95
2022-08-03T00:55:57.036Z,48.21
2022-08-03T00:58:24.502Z,48.20
2022-08-03T01:00:52.029Z,48.23
2022-08-03T01:03:19.392Z,48.29
2022-08-03T01:06:04.795Z,48.01
2022-08-03T01:09:07.989Z,48.02
2022-08-03T01:12:11.801Z,48.08
2022-08-03T01:15:31.712Z,48.61
2022-08-03T01:19:12.813Z,47.79
2022-08-03T01:22:14.682Z,48.24
2022-08-03T01:25:26.968Z,48.50
2022-08-03T01:29:05.931Z,48.78
2022-08-03T01:32:54.594Z,48.70
2022-08-03T01:35:17.117Z,48.82
2022-08-03T01:38:07.118Z,47.83
2022-08-03T01:40:36.741Z,47.57
2022-08-03T01:43:08.780Z,47.75
2022-08-03T01:45:37.731Z,47.86
2022-08-03T01:48:07.590Z,47.74
2022-08-03T01:50:35.452Z,47.96
2022-08-03T01:53:03.602Z,48.57
2022-08-03T01:55:33.287Z,48.56
2022-08-03T01:58:06.823Z,49.25
2022-08-03T02:00:37.884Z,49.27
2022-08-03T02:03:07.850Z,49.50
2022-08-03T02:05:36.411Z,49.11
2022-08-03T02:08:09.199Z,49.93
2022-08-03T02:10:37.705Z,49.98
2022-08-03T02:13:09.290Z,49.97
2022-08-03T02:15:39.247Z,49.64
2022-08-03T02:18:11.002Z,49.98
2022-08-03T02:20:44.244Z,49.75
2022-08-03T02:23:11.963Z,49.70
2022-08-03T02:25:48.207Z,49.63
2022-08-03T02:28:24.833Z,50.08
2022-08-03T02:30:56.006Z,49.89
2022-08-03T02:33:42.460Z,50.23
2022-08-03T02:36:14.505Z,49.80
2022-08-03T02:38:45.468Z,50.85
2022-08-03T02:41:21.247Z,50.97
2022-08-03T02:44:06.391Z,50.97
2022-08-03T02:46:44.540Z,51.00
2022-08-03T02:49:40.552Z,51.06
2022-08-03T02:52:11.355Z,50.56
2022-08-03T02:54:46.646Z,51.67
2022-08-03T02:57:15.262Z,50.90
2022-08-03T02:59:44.221Z,51.47
2022-08-03T03:02:12.633Z,51.08
2022-08-03T03:04:56.198Z,51.25
2022-08-03T03:07:29.454Z,51.27
2022-08-03T03:10:03.227Z,51.63
2022-08-03T03:12:34.306Z,52.19
2022-08-03T03:15:01.629Z,51.54
2022-08-03T03:17:31.055Z,51.29
2022-08-03T03:19:59.249Z,52.31
2022-08-03T03:22:28.162Z,52.25
2022-08-03T03:24:56.020Z,52.19
2022-08-03T03:27:24.751Z,51.89
2022-08-03T03:29:55.016Z,52.21
2022-08-03T03:32:22.564Z,52.54
2022-08-03T03:34:50.505Z,52.11
2022-08-03T03:37:18.478Z,52.63
2022-08-03T03:39:45.812Z,52.13
2022-08-03T03:42:13.787Z,52.65
2022-08-03T03:44:41.586Z,52.47
2022-08-03T03:47:08.982Z,53.31
2022-08-03T03:49:37.330Z,52.87
2022-08-03T03:52:05.178Z,52.54
2022-08-03T03:54:45.639Z,52.78
2022-08-03T03:57:13.920Z,52.46
2022-08-03T03:59:42.592Z,53.14
2022-08-03T04:02:12.532Z,52.99
2022-08-03T04:04:58.823Z,53.43
2022-08-03T04:07:46.874Z,53.34
2022-08-03T04:10:56.592Z,53.43
2022-08-03T04:13:25.410Z,53.05
2022-08-03T04:15:54.439Z,53.63
2022-08-03T04:18:22.713Z,53.56
2022-08-03T04:20:51.985Z,53.36
2022-08-03T04:23:25.156Z,54.13
2022-08-03T04:25:55.695Z,53.46
2022-08-03T04:28:31.426Z,53.56
2022-08-03T04:31:01.616Z,53.84
2022-08-03T04:33:33.443Z,53.98
2022-08-03T04:36:09.290Z,54.40
2022-08-03T04:39:00.845Z,54.04
2022-08-03T04:41:30.440Z,53.88
2022-08-03T04:44:00.779Z,54.00
2022-08-03T04:46:35.732Z,54.78
2022-08-03T04:49:03.265Z,54.07
2022-08-03T04:51:31.523Z,54.55
2022-08-03T04:53:59.530Z,54.19
2022-08-03T04:56:26.988Z,54.32
2022-08-03T04:58:56.097Z,54.86
2022-08-03T05:01:23.518Z,54.43
2022-08-03T05:03:51.666Z,54.19
2022-08-03T05:06:18.985Z,54.52
2022-08-03T05:08:50.883Z,53.99
2022-08-03T05:11:18.862Z,53.97
2022-08-03T05:13:46.900Z,54.71
2022-08-03T05:16:15.244Z,54.01
2022-08-03T05:18:44.165Z,53.75
2022-08-03T05:21:16.929Z,53.56
2022-08-03T05:23:45.348Z,53.37
2022-08-03T05:26:12.908Z,53.34
2022-08-03T05:28:40.669Z,53.52
2022-08-03T05:31:19.847Z,53.66
2022-08-03T05:33:48.911Z,53.73
2022-08-03T05:36:16.471Z,53.53
2022-08-03T05:38:43.782Z,52.87
2022-08-03T05:41:21.625Z,52.68
2022-08-03T05:43:55.356Z,52.51
2022-08-03T05:46:23.887Z,52.68
2022-08-03T05:48:51.484Z,52.94
2022-08-03T05:51:19.112Z,52.75
2022-08-03T05:53:46.731Z,52.65
2022-08-03T05:56:16.220Z,52.27
2022-08-03T05:58:47.473Z,52.20
2022-08-03T06:01:21.812Z,52.16
2022-08-03T06:03:51.065Z,52.20
2022-08-03T06:06:18.855Z,51.54
2022-08-03T06:08:46.948Z,51.65
2022-08-03T06:11:15.253Z,51.51
2022-08-03T06:13:43.881Z,51.33
2022-08-03T06:16:11.531Z,51.76
2022-08-03T06:18:40.447Z,51.88
2022-08-03T06:21:15.562Z,51.69
2022-08-03T06:23:54.618Z,51.69
2022-08-03T06:26:26.979Z,51.67
2022-08-03T06:28:55.439Z,51.43
2022-08-03T06:31:33.120Z,51.17
2022-08-03T06:34:34.351Z,51.24
2022-08-03T06:36:58.580Z,51.30
2022-08-03T06:39:29.630Z,50.98
2022-08-03T06:41:57.968Z,50.18
2022-08-03T06:44:25.300Z,49.82
2022-08-03T06:46:53.842Z,50.43
2022-08-03T06:49:24.602Z,49.63
2022-08-03T06:52:05.545Z,48.97
2022-08-03T06:54:34.506Z,49.59
2022-08-03T06:57:02.712Z,49.53
2022-08-03T07:00:09.847Z,49.43
2022-08-03T07:02:21.091Z,49.18
2022-08-03T07:04:49.628Z,49.12
2022-08-03T07:07:17.812Z,48.87
2022-08-03T07:09:56.434Z,48.80
2022-08-03T07:12:26.364Z,49.16
2022-08-03T07:14:59.771Z,48.63
2022-08-03T07:17:30.898Z,48.88
2022-08-03T07:19:58.914Z,48.14
2022-08-03T07:22:26.803Z,48.44
2022-08-03T07:24:54.427Z,48.20
2022-08-03T07:27:21.915Z,48.49
2022-08-03T07:29:49.366Z,47.71
2022-08-03T07:32:16.924Z,47.77
2022-08-03T07:34:44.717Z,48.05
2022-08-03T07:37:12.037Z,47.83
2022-08-03T07:39:39.349Z,47.30
2022-08-03T07:42:07.037Z,47.41
2022-08-03T07:44:34.593Z,47.11
2022-08-03T07:47:03.451Z,47.16
2022-08-03T07:49:31.491Z,46.97
2022-08-03T07:52:17.776Z,46.52
2022-08-03T07:54:45.518Z,46.73
2022-08-03T07:57:13.018Z,46.34
2022-08-03T07:59:57.190Z,46.51
2022-08-03T08:02:29.247Z,46.89
2022-08-03T08:04:56.622Z,46.21
2022-08-03T08:07:25.246Z,46.52
2022-08-03T08:09:52.835Z,46.89
2022-08-03T08:12:20.419Z,46.47
2022-08-03T08:14:48.118Z,46.33
2022-08-03T08:17:15.543Z,46.65
2022-08-03T08:19:45.970Z,46.96
2022-08-03T08:22:30.231Z,46.99
2022-08-03T08:24:59.779Z,46.49
2022-08-03T08:28:30.318Z,46.55
2022-08-03T08:30:21.881Z,46.35
2022-08-03T08:32:51.516Z,45.98
2022-08-03T08:35:19.593Z,46.34
2022-08-03T08:37:51.192Z,46.38
2022-08-03T08:40:22.947Z,45.71
2022-08-03T08:42:58.571Z,44.79
2022-08-03T08:45:28.038Z,44.67
2022-08-03T08:48:01.085Z,45.22
2022-08-03T08:50:31.901Z,44.08
2022-08-03T08:53:03.835Z,44.72
2022-08-03T08:55:58.749Z,44.10
2022-08-03T08:58:23.408Z,43.96
2022-08-03T09:00:51.704Z,43.25
2022-08-03T09:03:22.512Z,43.33
2022-08-03T09:06:00.896Z,43.03
2022-08-03T09:08:34.433Z,42.47
2022-08-03T09:11:01.898Z,42.63
2022-08-03T09:13:30.443Z,42.29
2022-08-03T09:16:21.404Z,42.53
2022-08-03T09:18:54.540Z,42.46
2022-08-03T09:21:33.637Z,41.97
2022-08-03T09:24:08.456Z,41.86
2022-08-03T09:26:49.457Z,41.42
2022-08-03T09:29:22.234Z,41.41
2022-08-03T09:31:49.572Z,40.26
2022-08-03T09:34:18.451Z,40.00
2022-08-03T09:36:52.317Z,39.72
2022-08-03T09:39:40.626Z,40.13
2022-08-03T09:42:23.731Z,39.42
2022-08-03T09:44:53.089Z,39.93
2022-08-03T09:47:37.435Z,39.78
2022-08-03T09:50:12.998Z,38.93
2022-08-03T09:52:50.057Z,39.20
2022-08-03T09:56:33.292Z,38.83
2022-08-03T09:58:14.305Z,38.02
2022-08-03T10:01:06.351Z,37.37
2022-08-03T10:04:03.027Z,37.72
2022-08-03T10:06:29.061Z,37.80
2022-08-03T10:09:11.242Z,36.53
2022-08-03T10:11:42.445Z,35.96
2022-08-03T10:14:23.414Z,36.08
2022-08-03T10:16:50.827Z,36.20
2022-08-03T10:19:18.353Z,36.50
2022-08-03T10:21:56.910Z,35.85
2022-08-03T10:24:29.486Z,36.62
2022-08-03T10:27:08.233Z,36.45
2022-08-03T10:29:42.868Z,34.85
2022-08-03T10:32:32.476Z,35.79
2022-08-03T10:35:21.063Z,34.63
2022-08-03T10:38:09.065Z,34.41
2022-08-03T10:40:57.166Z,33.74
2022-08-03T10:43:59.279Z,32.51
2022-08-03T10:46:27.648Z,33.05
2022-08-03T10:48:56.765Z,32.43
2022-08-03T10:51:26.506Z,32.41
2022-08-03T10:53:55.238Z,31.62
2022-08-03T10:56:54.401Z,31.41
2022-08-03T10:59:46.881Z,29.97
2022-08-03T11:02:15.730Z,30.12
2022-08-03T11:04:45.202Z,29.52
2022-08-03T11:07:26.327Z,29.80
2022-08-03T11:09:56.566Z,30.01
2022-08-03T11:12:31.452Z,29.31
2022-08-03T11:15:09.388Z,29.93
2022-08-03T11:17:46.646Z,28.29
2022-08-03T11:20:53.730Z,27.10
2022-08-03T11:24:03.421Z,26.76
2022-08-03T11:26:34.687Z,26.73
2022-08-03T11:29:30.386Z,26.50
2022-08-03T11:31:58.137Z,26.97
2022-08-03T11:34:26.002Z,26.16
2022-08-03T11:37:30.135Z,24.69
2022-08-03T11:40:02.417Z,23.75
2022-08-03T11:42:36.544Z,24.17
2022-08-03T11:45:08.986Z,23.20
2022-08-03T11:47:50.736Z,24.67
2022-08-03T11:50:20.069Z,24.30
2022-08-03T11:52:49.472Z,22.49
2022-08-03T11:55:22.090Z,22.37
2022-08-03T11:59:17.274Z,22.63
2022-08-03T12:00:38.590Z,22.21
2022-08-03T12:03:12.652Z,22.08
2022-08-03T12:05:53.629Z,21.61
2022-08-03T12:08:28.046Z,20.78
2022-08-03T12:11:00.080Z,20.85
2022-08-03T12:14:44.636Z,20.86
2022-08-03T12:16:28.826Z,21.37
2022-08-03T12:19:09.328Z,22.21
2022-08-03T12:21:57.373Z,20.88
2022-08-03T12:24:29.534Z,21.73
2022-08-03T12:27:00.076Z,21.19
2022-08-03T12:29:28.030Z,21.06
2022-08-03T12:31:55.887Z,21.15
2022-08-03T12:34:24.006Z,21.17
2022-08-03T12:36:56.748Z,20.75
2022-08-03T12:39:30.853Z,21.00
2022-08-03T12:41:59.379Z,21.28
2022-08-03T12:44:36.702Z,25.30
2022-08-03T12:47:07.630Z,21.28
2022-08-03T12:49:54.030Z,19.73
2022-08-03T12:52:23.262Z,19.28
2022-08-03T12:55:01.401Z,19.26
2022-08-03T12:57:42.895Z,19.28
2022-08-03T13:00:28.651Z,18.46
2022-08-03T13:05:57.685Z,18.67
2022-08-03T13:08:25.956Z,18.51
2022-08-03T13:10:53.988Z,17.90
2022-08-03T13:13:39.731Z,18.62
2022-08-03T13:16:07.065Z,18.51
2022-08-03T13:18:34.447Z,17.59
2022-08-03T13:21:02.316Z,18.32
2022-08-03T13:23:29.885Z,18.89
2022-08-03T13:25:57.261Z,17.57
2022-08-03T13:28:24.660Z,18.77
2022-08-03T13:30:54.174Z,17.87
2022-08-03T13:33:21.662Z,18.40
2022-08-03T13:35:48.988Z,17.34
2022-08-03T13:38:17.264Z,17.84
2022-08-03T13:40:44.760Z,18.03
2022-08-03T13:43:13.603Z,17.03
2022-08-03T13:45:42.190Z,17.23
2022-08-03T13:48:10.925Z,17.65
2022-08-03T13:50:42.823Z,17.04
2022-08-03T13:53:10.575Z,18.01
2022-08-03T13:55:38.006Z,16.68
2022-08-03T13:58:07.957Z,16.95
2022-08-03T14:00:35.551Z,17.45
2022-08-03T14:03:13.734Z,17.05
2022-08-03T14:05:43.847Z,17.17
2022-08-03T14:08:13.638Z,17.01
2022-08-03T14:10:44.947Z,17.41
2022-08-03T14:13:17.707Z,17.33
2022-08-03T14:15:49.842Z,17.33
2022-08-03T14:18:28.925Z,16.90
2022-08-03T14:21:06.636Z,16.73
2022-08-03T14:23:37.869Z,17.36
2022-08-03T14:26:10.518Z,16.98
2022-08-03T14:28:40.062Z,17.71
2022-08-03T14:31:15.244Z,17.71
2022-08-03T14:33:55.137Z,17.86
2022-08-03T14:36:22.432Z,17.41
2022-08-03T14:38:49.857Z,18.32
2022-08-03T14:41:20.029Z,17.30
2022-08-03T14:44:01.405Z,17.30
2022-08-03T14:46:31.094Z,17.15
2022-08-03T14:50:33.159Z,17.23
2022-08-03T14:51:51.603Z,17.03
2022-08-03T14:54:22.428Z,16.80
2022-08-03T14:56:49.759Z,17.58
2022-08-03T14:59:17.079Z,17.82
2022-08-03T15:02:03.313Z,18.31
2022-08-03T15:04:31.983Z,18.29
2022-08-03T15:06:59.309Z,17.52
2022-08-03T15:09:28.624Z,17.16
2022-08-03T15:11:55.954Z,17.35
2022-08-03T15:14:32.474Z,17.52
2022-08-03T15:17:02.294Z,16.62
2022-08-03T15:20:05.565Z,16.83
2022-08-03T15:22:20.536Z,17.05
2022-08-03T15:24:52.581Z,16.97
2022-08-03T15:27:20.125Z,17.77
2022-08-03T15:30:09.550Z,17.41
2022-08-03T15:32:35.275Z,16.80
2022-08-03T15:35:02.666Z,16.80
2022-08-03T15:37:29.980Z,16.92
2022-08-03T15:39:58.812Z,17.43
2022-08-03T15:42:30.737Z,17.76
2022-08-03T15:44:58.680Z,17.45
2022-08-03T15:47:26.963Z,17.45
2022-08-03T15:49:54.485Z,17.70
2022-08-03T15:52:21.981Z,18.25
2022-08-03T15:54:49.380Z,18.20
2022-08-03T15:57:16.684Z,17.83
2022-08-03T15:59:44.073Z,18.15
2022-08-03T16:02:11.529Z,18.22
2022-08-03T16:04:38.888Z,17.95
2022-08-03T16:07:06.404Z,17.97
2022-08-03T16:09:42.127Z,18.71
2022-08-03T16:12:15.849Z,18.98
2022-08-03T16:14:52.878Z,18.06
2022-08-03T16:17:22.560Z,18.53
2022-08-03T16:19:54.106Z,18.39
2022-08-03T16:22:24.462Z,18.83
2022-08-03T16:24:55.642Z,18.64
2022-08-03T16:28:00.360Z,19.13
2022-08-03T16:30:16.714Z,18.51
2022-08-03T16:32:47.449Z,18.86
2022-08-03T16:35:19.230Z,18.83
2022-08-03T16:37:50.679Z,18.93
2022-08-03T16:40:25.148Z,18.87
2022-08-03T16:42:53.439Z,19.28
2022-08-03T16:45:20.769Z,19.27
2022-08-03T16:47:48.297Z,19.46
2022-08-03T16:50:30.489Z,19.81
2022-08-03T16:52:57.904Z,19.46
2022-08-03T16:55:48.750Z,19.18
2022-08-03T16:58:15.091Z,19.51
2022-08-03T17:00:43.107Z,20.25
2022-08-03T17:03:18.765Z,19.67
2022-08-03T17:05:50.183Z,19.75
2022-08-03T17:08:26.347Z,19.76
2022-08-03T17:10:56.221Z,20.06
2022-08-03T17:13:38.902Z,19.89
2022-08-03T17:16:11.918Z,20.44
2022-08-03T17:18:57.519Z,20.60
2022-08-03T17:21:35.428Z,21.50
2022-08-03T17:24:45.050Z,21.75
2022-08-03T17:28:51.235Z,20.93
2022-08-03T17:30:19.093Z,20.71
2022-08-03T17:32:56.842Z,20.95
2022-08-03T17:35:34.592Z,21.25
2022-08-03T17:38:11.899Z,21.73
2022-08-03T17:40:43.079Z,21.91
2022-08-03T17:44:13.284Z,21.93
2022-08-03T17:46:07.216Z,22.25
2022-08-03T17:48:41.126Z,22.42
2022-08-03T17:51:31.398Z,22.11
2022-08-03T17:55:57.370Z,22.19
2022-08-03T17:58:08.293Z,22.72
2022-08-03T18:00:59.681Z,22.67
2022-08-03T18:03:58.405Z,22.73
2022-08-03T18:06:36.364Z,22.63
2022-08-03T18:10:02.572Z,22.59
2022-08-03T18:12:05.173Z,23.14
2022-08-03T18:14:57.671Z,23.51
2022-08-03T18:18:01.833Z,22.64
2022-08-03T18:20:32.145Z,22.94
2022-08-03T18:23:07.009Z,23.49
2022-08-03T18:25:42.903Z,23.42
2022-08-03T18:28:14.521Z,23.03
2022-08-03T18:30:53.080Z,23.48
2022-08-03T18:34:16.918Z,23.48
2022-08-03T18:36:17.980Z,24.72
2022-08-03T18:38:49.132Z,25.04
2022-08-03T18:41:21.963Z,24.98
2022-08-03T18:44:08.221Z,25.36
2022-08-03T18:51:09.753Z,26.34
2022-08-03T18:54:06.480Z,25.93
2022-08-03T18:56:54.441Z,26.75
2022-08-03T18:59:52.841Z,26.35
2022-08-03T19:02:48.700Z,27.07
2022-08-03T19:05:24.671Z,27.79
2022-08-03T19:08:47.871Z,28.13
2022-08-03T19:12:13.189Z,28.49
2022-08-03T19:14:44.243Z,28.81
2022-08-03T19:17:14.081Z,29.23
2022-08-03T19:19:52.284Z,29.64
2022-08-03T19:22:23.043Z,30.13
2022-08-03T19:24:52.876Z,30.12
2022-08-03T19:27:27.017Z,29.96
2022-08-03T19:30:03.036Z,30.30
2022-08-03T19:32:35.158Z,30.11
2022-08-03T19:35:10.109Z,30.69
2022-08-03T19:37:46.540Z,30.99
2022-08-03T19:40:13.880Z,31.40
2022-08-03T19:42:46.835Z,31.70
2022-08-03T19:46:04.863Z,32.07
2022-08-03T19:48:26.060Z,32.75
2022-08-03T19:50:56.808Z,33.34
2022-08-03T19:53:35.362Z,33.25
2022-08-03T19:56:07.025Z,34.18
2022-08-03T19:58:35.417Z,33.84
2022-08-03T20:01:18.934Z,33.96
2022-08-03T20:03:49.752Z,33.76
2022-08-03T20:06:23.125Z,34.05
2022-08-03T20:08:51.833Z,34.84
2022-08-03T20:11:20.463Z,34.81
2022-08-03T20:13:59.130Z,35.69
2022-08-03T20:16:27.225Z,35.39
2022-08-03T20:18:54.588Z,35.95
2022-08-03T20:21:27.234Z,35.48
2022-08-03T20:24:23.080Z,35.85
2022-08-03T20:26:59.377Z,35.73
2022-08-03T20:30:07.250Z,35.58
2022-08-03T20:32:35.685Z,35.47
2022-08-03T20:35:03.105Z,35.78
2022-08-03T20:37:37.909Z,36.69
2022-08-03T20:40:07.212Z,37.11
2022-08-03T20:42:34.555Z,36.18
2022-08-03T20:45:05.395Z,36.39
2022-08-03T20:47:50.660Z,36.11
2022-08-03T20:50:18.441Z,35.83
2022-08-03T20:52:50.601Z,34.79
2022-08-03T20:55:39.106Z,34.47
2022-08-03T20:58:07.689Z,34.08
2022-08-03T21:00:35.045Z,33.44
2022-08-03T21:03:02.561Z,36.75
2022-08-03T21:05:51.208Z,34.85
2022-08-03T21:08:20.954Z,34.64
2022-08-03T21:10:49.366Z,34.48
2022-08-03T21:13:09.603Z,25.65
2022-08-03T21:13:45.195Z,33.61
2022-08-03T21:16:15.321Z,33.70
2022-08-03T21:18:57.924Z,34.02
2022-08-03T21:21:32.589Z,33.60
2022-08-03T21:24:03.528Z,37.56
2022-08-03T21:26:34.323Z,33.34
2022-08-03T21:29:02.453Z,32.86
2022-08-03T21:31:30.024Z,33.15
2022-08-03T21:34:05.274Z,32.97
2022-08-03T21:36:37.934Z,32.80
2022-08-03T21:39:10.069Z,32.89
2022-08-03T21:41:41.352Z,33.21
2022-08-03T21:44:09.162Z,33.00
2022-08-03T21:46:43.130Z,33.38
2022-08-03T21:50:04.710Z,33.72
2022-08-03T21:52:07.218Z,33.62
2022-08-03T21:54:58.272Z,34.01
2022-08-03T21:57:27.981Z,35.83
2022-08-03T22:00:14.973Z,35.78
2022-08-03T22:02:53.185Z,34.74
2022-08-03T22:05:42.361Z,35.92
2022-08-03T22:08:13.686Z,36.02
2022-08-03T22:10:45.011Z,37.60
2022-08-03T22:13:20.594Z,37.14
2022-08-03T22:16:05.438Z,37.34
2022-08-03T22:18:32.918Z,37.82
2022-08-03T22:21:02.168Z,37.08
2022-08-03T22:23:30.842Z,36.95
2022-08-03T22:26:03.436Z,36.21
2022-08-03T22:28:31.924Z,35.89
2022-08-03T22:31:00.105Z,38.43
2022-08-03T22:33:50.113Z,37.33
2022-08-03T22:36:22.814Z,37.47
2022-08-03T22:38:53.458Z,36.91
2022-08-03T22:41:21.568Z,37.64
2022-08-03T22:43:49.714Z,37.88
2022-08-03T22:46:23.440Z,37.54
2022-08-03T22:48:51.701Z,37.73
2022-08-03T22:51:21.010Z,37.82
2022-08-03T22:53:49.211Z,38.44
2022-08-03T22:56:16.547Z,38.53
2022-08-03T22:58:43.891Z,38.40
2022-08-03T23:01:18.524Z,38.02
2022-08-03T23:04:02.069Z,37.25
2022-08-03T23:06:40.485Z,37.97
2022-08-03T23:09:12.668Z,36.85
2022-08-03T23:11:45.960Z,36.89
2022-08-03T23:14:20.490Z,37.58
2022-08-03T23:16:50.280Z,37.63
2022-08-03T23:19:25.045Z,37.39
2022-08-03T23:22:03.134Z,37.40
2022-08-03T23:24:38.919Z,37.70
2022-08-03T23:27:09.161Z,37.46
2022-08-03T23:29:42.200Z,37.58
2022-08-03T23:32:12.853Z,37.22
2022-08-03T23:35:00.617Z,37.93
2022-08-03T23:37:28.239Z,37.98
2022-08-03T23:39:56.993Z,38.14
2022-08-03T23:42:25.436Z,37.95
2022-08-03T23:45:05.394Z,38.72
2022-08-03T23:47:46.413Z,38.78
2022-08-03T23:50:15.448Z,38.37
2022-08-03T23:53:11.717Z,38.07
2022-08-03T23:56:11.938Z,38.33
2022-08-03T23:59:14.075Z,38.73
